INDIA METEOROLOGICAL DEPARTMENT, R.M.C. NEW DELHI
Dated:20-01-2022
METARS


Ahmedabad  
VAAH 202230Z 36002KT 3000 BR NSC 18/17 Q1009 NOSIG=
Allahabad  
VEAB 202130Z VRB01KT 0800 FG FEW020 11/11 Q1011 NOSIG=
Bangalore  
VOBL 202230Z VRB01KT 5000 BR FEW008 15/14 Q1014 TEMPO 4000 BR=
Bhubaneswar
VEBS 202230Z 00000KT 1000 MIFG NSC 17/17 Q1009 BECMG 0800 FG=
Chennai    
VOMM 202230Z 00000KT 3000 BR FEW020 23/21 Q1009 NOSIG=
Coimbatore 
VOCB 202230Z NIL=
Colombo    
VCBI 202210Z 06002KT CAVOK 20/19 Q1009 NOSIG=
Delhi      
VIDP 202230Z 00000KT 0250 R28/1600 R29/1200 FG FEW100 10/10 Q1011 NOSIG=
Gauhati    
VEGT 202200Z NIL=
Gaya       
VEGY 202200Z 00000KT 1500 BR SCT016 BKN100 12/09 Q1010 =
Goa        
VOGO 202200Z 06005KT 6000 NSC 23/19 Q1009 NOSIG=
Hyderabad  
VOHS 202230Z VRB03KT 5000 BR FEW015 17/14 Q1012 NOSIG=
Indore     
VAID 202230Z 29004KT 3000 BR NSC 13/12 Q1011 NOSIG=
Jaipur     
VIJP 202200Z 12004KT 1600 BR FEW035 10/10 Q1011 BECMG 1500 BR=
Kochi      
VOCI 202230Z 08002KT 3000 BR FEW015 22/22 Q1009 NOSIG=
Kolkata    
VECC 202230Z 00000KT 1800 BR FEW100 16/15 Q1010 NOSIG=
Kozhikode  
VOCL 202230Z 06005KT 4000 BR SCT012 23/22 Q1010 NOSIG=
Lucknow    
VILK 202230Z 05003KT 0600 R27/1800 FG SCT020 BKN100 11/10 Q1010 NOSIG=
Mumbai     
VABB 202200Z 00000KT 3000 HZ FEW100 22/17 Q1010 NOSIG=
Nagpur     
VANP 202200Z 33003KT 3000 HZ NSC 15/10 Q1010 NOSIG=
Patna      
VEPT 202230Z 21003KT 0700 R25/1700 FG FEW018 SCT100 08/07 Q1010 BECMG 0800 FG=
Ranchi     
VERC 202200Z 00000KT 2000 HZ SCT010 13/08 Q1012 NOSIG=
Trichy     
VOTR 202230Z VRB02KT 3000 BR FEW016 22/19 Q1011 NOSIG=
Trivandrum 
VOTV 202230Z VRB02KT 2500 BR FEW015 26/24 Q1009 NOSIG=
Vizag      
VOVZ 202200Z VRB02KT 3000 BR SCT018 SCT080 21/21 Q1009 NOSIG=
Male       
VRMM 202200Z 04005KT 9999 FEW018 BKN280 28/23 Q1010 NOSIG=
Gan        
VRMG 202200Z 05004KT 9999 FEW018TCU BKN260 28/25 Q1010 NOSIG=
Kathmandu  
VNKT 202200Z NIL=
Dhaka      
VGHS 202230Z 28003KT 1400 BR SCT012 BKN100 17/14 Q1010 TEMPO S/VIS 1000M=
Colombo    
VCBI 202210Z 06002KT CAVOK 20/19 Q1009 NOSIG=
Karachi    
OPKC 202230Z 26011KT 5000 FU SCT030 23/20 Q1008 NOSIG=
Lahore     
OPLA 202225Z 00000KT 4000 FU SCT040 BKN100 10/08 Q1011 NOSIG RMK QFE984 A29.88=
Gorakhpur  
VEGK 202130Z VRB01KT 0000 FG SKY OBS 07/07 Q1010=
Bagdogra   
VEBD 202130Z VRB01KT 5000 -TSRABR SCT025 FEW030CB BKN090 14/13 Q1011 NOSIG=
Pune       
VAPO 202130Z 27003KT 5000 HZ SKC 16/11 Q1014 BECMG 4000=
Jamnagar   
VAJM 202130Z 22003KT 4000 BR SCT010 SCT015 22/22 Q1010 NOSIG=
Pathankot   
VIPK 202130Z VRB01KT 1000 BR SCT015 BKN025 13/12 Q1013 NOSIG=